Terminal Aerodrome Forecast
Issued by NWS

Home | Current Version | Previous Version | Text Only | Print | Product List | Glossary Off
Versions: 1 2 3 4 5 6 7 8 9 10 11 12 13 14 15 16 17 18 19 20 21 22 23

000
FTUS42 KMHX 250554 CCA
TAFISO
TAF COR
KISO 250554Z 2506/2606 10010G15KT 4SM SHRA SCT007 OVC010
      TEMPO 2506/2509 3SM SHRA BKN007
     FM250900 15010KT 5SM -SHRA SCT007 OVC010
     FM251200 19010KT P6SM VCSH BKN025
     FM251500 20008KT P6SM VCSH SCT020 BKN040
     FM252300 26005KT P6SM SCT025 BKN040
      AMD LTD TO CLD VIS AND WIND=

USA.gov is the U.S. government's official web portal to all federal, state and local government web resources and services.